AirNav   Pilot Hours Calculator
 
 801 users online  

CL77 Bonny Doon Airport
Santa Cruz, California, USA

GOING TO SANTA CRUZ?


FAA INFORMATION EFFECTIVE 26 MARCH 2020

Location

FAA Identifier: CL77
Lat/Long: 37-04-13.8130N 122-07-38.8760W
37-04.230217N 122-07.647933W
37.0705036,-122.1274656
(estimated)
Elevation: 2020 ft. / 616 m (estimated)
Variation: 16E (1980)
From city: 8 miles NW of SANTA CRUZ, CA
Time zone: UTC -7 (UTC -8 during Standard Time)
Zip code: 95060

Airport Operations

Airport use: Private use. Permission required prior to landing
Activation date: 07/1986
Control tower: no
ARTCC: OAKLAND CENTER
FSS: OAKLAND FLIGHT SERVICE STATION
Attendance: CONTINUOUS
Wind indicator: yes
Segmented circle: yes

Airport Communications

WX ASOS at WVI (18 nm SE): 132.275 (831-724-8794)
WX ASOS at SJC (20 nm NE): 126.95 (408-969-0838)

Nearby radio navigation aids

VOR radial/distance  VOR name  Freq  Var
SJCr190/20.2SAN JOSE VOR/DME114.1016E
OSIr142/20.7WOODSIDE VOR/DME113.9017E
SFOr143/35.0SAN FRANCISCO VOR/DME115.8017E
SNSr297/35.1SALINAS VORTAC117.3017E
OAKr156/39.6OAKLAND VOR/DME116.8017E

Airport Services

Runway Information

Runway 12/30

Dimensions: 2200 x 50 ft. / 671 x 15 m
Surface: asphalt
RUNWAY 12  RUNWAY 30
Traffic pattern: leftleft

Airport Ownership and Management from official FAA records

Ownership: Privately-owned
Owner: BONNY DOON AIRPORT LLC
8647 EMPIRE GRADE
SANTA CRUZ, CA 95060
Phone (831) 7316-7309
C/O MARGARET LIP
Manager: PHILLIP TRISSELL
680 DELTA WAY
WATSONVILLE, CA 95076
Phone 831-254-5111

Airport Operational Statistics

Aircraft based on the field: 2
Single engine airplanes: 2
    

Additional Remarks

TREES SURROUNDING ARPT; HIGH TRRN NORTH; USE RWY 30 FOR LANDING; RWY 12 FOR TKOF.
FOR CD CTC NORCAL APCH AT 916-361-3748.

Instrument Procedures

There are no published instrument procedures at CL77.

Some nearby airports with instrument procedures:

KWVI - Watsonville Municipal Airport (18 nm SE)
KSJC - Norman Y Mineta San Jose International Airport (20 nm NE)
KNUQ - Moffett Federal Airfield (21 nm N)
KRHV - Reid-Hillview Airport of Santa Clara County (22 nm NE)
KPAO - Palo Alto Airport (23 nm N)
 
Loc | Ops | Rwys | IFR | FBO | Links
Com | Nav | Svcs | Stats | Notes
Area around CL77 (Bonny Doon Airport)
 
Road maps at: MapQuest Bing Google
 
Aerial photo
WARNING: Photo may not be current or correct
Aerial photo of CL77 (Bonny Doon Airport)
Do you have a better or more recent aerial photo of Bonny Doon Airport that you would like to share? If so, please send us your photo.

 
Sectional chart

 
Airport distance calculator
Flying to Bonny Doon Airport? Find the distance to fly.

From to CL77

Sunrise and sunset
Times for 03-Apr-2020
 Local
(UTC-7)
 Zulu
(UTC)
Morning civil twilight06:2413:24
Sunrise06:5113:51
Sunset19:3202:32
Evening civil twilight19:5902:59

Current date and time
Zulu (UTC)  03-Apr-2020 23:25:01
Local (UTC-7)  03-Apr-2020 16:25:01
 
METAR
KWVI 
18nm SE 
032253Z AUTO 21006KT 10SM CLR 16/07 A3001 RMK AO2 SLP162 T01610067
KSJC 
20nm NE 
032253Z 33014KT 10SM FEW050 FEW110 SCT150 17/04 A3001 RMK AO2 SLP160 T01670044
KRHV 
21nm NE 
032247Z 30015G18KT 10SM SKC 17/05 A3000
KPAO 
24nm N 
032147Z 34018G21KT 10SM SKC 16/06 A3003
KSQL 
27nm N 
032247Z 28015KT 10SM SKC 15/03 A3003
KOAR 
30nm SE 
134.025 831-384-2967
No observation available
KHAF 
32nm NW 
032300Z AUTO 34019G24KT 8SM CLR 13/07 A3005 RMK AO2
KMRY 
32nm SE 
032254Z 29011G19KT 10SM FEW024 16/06 A3005 RMK AO2 SLP189 T01560061
KSFO 
35nm N 
032256Z 28019KT 10SM FEW017 FEW035 SCT200 15/04 A3003 RMK AO2 SLP168 T01500044
KSNS 
35nm SE 
032253Z 27012G17KT 10SM CLR 14/04 A3003 RMK AO2 SLP177 T01440044
TAF
KSJC 
20nm NE 
031739Z 0318/0418 33008KT P6SM SCT200 FM032200 27008KT P6SM SCT200 FM040300 31005KT P6SM SCT200 FM040800 VRB03KT P6SM BKN120 OVC150 FM041400 17004KT P6SM BKN050 OVC090 PROB30 0415/0418 2SM -SHRA BR BKN050 OVC060
NOTAMs
Click for the latest NOTAMs
NOTAMs are issued by the DoD/FAA and will open in a separate window not controlled by AirNav.

 

 
 

Would you like to see your business listed on this page?

 If your business provides an interesting product or service to pilots, flight crews, aircraft, or users of the Bonny Doon Airport, you should consider listing it here.  To start the listing process, click on the button below
 
Add a business
 

Other Pages about Bonny Doon Airport

Update a link
 
Copyright © AirNav, LLC. All rights reserved. Privacy Policy  Contact